Terminal Aerodrome Forecast
Issued by NWS Memphis, TN

Current Version | Previous Version | Text Only | Print | Product List | Glossary On
Versions: 1 2 3 4 5 6 7 8 9 10 11 12 13 14 15 16 17 18 19 20 21 22 23 24 25 26 27 28 29 30 31 32 33 34 35 36 37 38 39 40 41 42
000
FTUS44 KMEG 030500
TAFMEM
TAF
KMEM 030532Z 0306/0406 19004KT P6SM SCT035 SCT150
     FM031000 19004KT P6SM SCT007 BKN015
      TEMPO 0311/0314 6SM BR BKN007
     FM031700 21005KT P6SM BKN035 BKN250
     FM031900 21007KT P6SM SCT040 SCT250=

USA.gov is the U.S. government's official web portal to all federal, state and local government web resources and services.